sensor_id;sensor_type;location;lat;lon;timestamp;temperature;humidity
68804;SHT31;55787;52.678;13.314;2022-12-10T00:01:28;-1.84;96.35
68804;SHT31;55787;52.678;13.314;2022-12-10T00:03:55;-1.81;96.17
68804;SHT31;55787;52.678;13.314;2022-12-10T00:06:24;-1.81;96.04
68804;SHT31;55787;52.678;13.314;2022-12-10T00:08:51;-1.90;95.94
68804;SHT31;55787;52.678;13.314;2022-12-10T00:11:20;-1.91;96.33
68804;SHT31;55787;52.678;13.314;2022-12-10T00:13:47;-2.01;96.27
68804;SHT31;55787;52.678;13.314;2022-12-10T00:16:17;-1.98;96.29
68804;SHT31;55787;52.678;13.314;2022-12-10T00:18:44;-1.99;96.48
68804;SHT31;55787;52.678;13.314;2022-12-10T00:21:14;-1.92;96.51
68804;SHT31;55787;52.678;13.314;2022-12-10T00:23:41;-1.95;96.25
68804;SHT31;55787;52.678;13.314;2022-12-10T00:26:16;-1.97;96.81
68804;SHT31;55787;52.678;13.314;2022-12-10T00:28:44;-1.98;96.70
68804;SHT31;55787;52.678;13.314;2022-12-10T00:31:16;-1.98;96.51
68804;SHT31;55787;52.678;13.314;2022-12-10T00:33:44;-1.94;96.51
68804;SHT31;55787;52.678;13.314;2022-12-10T00:36:16;-1.99;96.28
68804;SHT31;55787;52.678;13.314;2022-12-10T00:38:44;-1.94;96.56
68804;SHT31;55787;52.678;13.314;2022-12-10T00:41:12;-1.94;96.55
68804;SHT31;55787;52.678;13.314;2022-12-10T00:43:39;-1.94;96.63
68804;SHT31;55787;52.678;13.314;2022-12-10T00:46:06;-1.94;96.43
68804;SHT31;55787;52.678;13.314;2022-12-10T00:48:33;-1.97;96.43
68804;SHT31;55787;52.678;13.314;2022-12-10T00:51:06;-1.95;96.28
68804;SHT31;55787;52.678;13.314;2022-12-10T00:53:35;-1.97;96.47
68804;SHT31;55787;52.678;13.314;2022-12-10T00:56:03;-1.97;96.42
68804;SHT31;55787;52.678;13.314;2022-12-10T00:58:32;-1.98;96.40
68804;SHT31;55787;52.678;13.314;2022-12-10T01:01:12;-1.97;96.42
68804;SHT31;55787;52.678;13.314;2022-12-10T01:03:40;-1.98;96.33
68804;SHT31;55787;52.678;13.314;2022-12-10T01:08:43;-1.99;96.28
68804;SHT31;55787;52.678;13.314;2022-12-10T01:11:11;-1.99;96.55
68804;SHT31;55787;52.678;13.314;2022-12-10T01:13:39;-1.98;96.51
68804;SHT31;55787;52.678;13.314;2022-12-10T01:16:08;-1.99;96.30
68804;SHT31;55787;52.678;13.314;2022-12-10T01:18:35;-1.99;96.57
68804;SHT31;55787;52.678;13.314;2022-12-10T01:21:04;-1.97;96.52
68804;SHT31;55787;52.678;13.314;2022-12-10T01:23:36;-1.95;96.40
68804;SHT31;55787;52.678;13.314;2022-12-10T01:26:05;-1.92;96.38
68804;SHT31;55787;52.678;13.314;2022-12-10T01:28:34;-1.94;96.57
68804;SHT31;55787;52.678;13.314;2022-12-10T01:31:06;-1.94;96.68
68804;SHT31;55787;52.678;13.314;2022-12-10T01:33:34;-1.94;96.73
68804;SHT31;55787;52.678;13.314;2022-12-10T01:36:07;-1.91;96.69
68804;SHT31;55787;52.678;13.314;2022-12-10T01:38:34;-1.90;96.78
68804;SHT31;55787;52.678;13.314;2022-12-10T01:41:01;-1.88;96.71
68804;SHT31;55787;52.678;13.314;2022-12-10T01:43:29;-1.90;96.65
68804;SHT31;55787;52.678;13.314;2022-12-10T01:46:13;-1.88;96.67
68804;SHT31;55787;52.678;13.314;2022-12-10T01:48:40;-1.88;96.77
68804;SHT31;55787;52.678;13.314;2022-12-10T01:51:07;-1.90;96.88
68804;SHT31;55787;52.678;13.314;2022-12-10T01:53:34;-1.85;96.77
68804;SHT31;55787;52.678;13.314;2022-12-10T01:56:01;-1.83;96.49
68804;SHT31;55787;52.678;13.314;2022-12-10T01:58:27;-1.84;96.61
68804;SHT31;55787;52.678;13.314;2022-12-10T02:03:56;-1.90;96.70
68804;SHT31;55787;52.678;13.314;2022-12-10T02:12:15;-1.94;96.89
68804;SHT31;55787;52.678;13.314;2022-12-10T02:15:04;-1.95;97.08
68804;SHT31;55787;52.678;13.314;2022-12-10T02:17:34;-1.98;97.21
68804;SHT31;55787;52.678;13.314;2022-12-10T02:22:51;-1.98;97.20
68804;SHT31;55787;52.678;13.314;2022-12-10T02:25:23;-1.84;96.81
68804;SHT31;55787;52.678;13.314;2022-12-10T02:28:06;-1.85;97.00
68804;SHT31;55787;52.678;13.314;2022-12-10T02:30:38;-1.87;97.04
68804;SHT31;55787;52.678;13.314;2022-12-10T02:33:06;-1.83;96.95
68804;SHT31;55787;52.678;13.314;2022-12-10T02:35:35;-1.84;96.60
68804;SHT31;55787;52.678;13.314;2022-12-10T02:38:35;-1.88;96.82
68804;SHT31;55787;52.678;13.314;2022-12-10T02:41:06;-1.85;97.26
68804;SHT31;55787;52.678;13.314;2022-12-10T02:43:34;-1.83;97.06
68804;SHT31;55787;52.678;13.314;2022-12-10T02:46:03;-1.83;97.10
68804;SHT31;55787;52.678;13.314;2022-12-10T02:48:31;-1.81;97.05
68804;SHT31;55787;52.678;13.314;2022-12-10T02:50:59;-1.81;96.85
68804;SHT31;55787;52.678;13.314;2022-12-10T02:53:25;-1.64;96.54
68804;SHT31;55787;52.678;13.314;2022-12-10T02:56:26;-1.67;96.24
68804;SHT31;55787;52.678;13.314;2022-12-10T02:58:55;-1.61;96.24
68804;SHT31;55787;52.678;13.314;2022-12-10T03:01:37;-1.67;96.11
68804;SHT31;55787;52.678;13.314;2022-12-10T03:04:17;-1.75;96.49
68804;SHT31;55787;52.678;13.314;2022-12-10T03:06:53;-1.77;96.70
68804;SHT31;55787;52.678;13.314;2022-12-10T03:09:37;-1.75;96.81
68804;SHT31;55787;52.678;13.314;2022-12-10T03:12:29;-1.80;96.94
68804;SHT31;55787;52.678;13.314;2022-12-10T03:15:03;-1.81;97.09
68804;SHT31;55787;52.678;13.314;2022-12-10T03:17:31;-1.77;97.09
68804;SHT31;55787;52.678;13.314;2022-12-10T03:20:00;-1.73;96.62
68804;SHT31;55787;52.678;13.314;2022-12-10T03:22:28;-1.73;96.99
68804;SHT31;55787;52.678;13.314;2022-12-10T03:24:57;-1.70;96.86
68804;SHT31;55787;52.678;13.314;2022-12-10T03:27:24;-1.71;96.75
68804;SHT31;55787;52.678;13.314;2022-12-10T03:29:53;-1.71;96.71
68804;SHT31;55787;52.678;13.314;2022-12-10T03:32:22;-1.67;96.52
68804;SHT31;55787;52.678;13.314;2022-12-10T03:34:51;-1.74;96.83
68804;SHT31;55787;52.678;13.314;2022-12-10T03:37:20;-1.75;96.82
68804;SHT31;55787;52.678;13.314;2022-12-10T03:39:48;-1.75;96.92
68804;SHT31;55787;52.678;13.314;2022-12-10T03:42:15;-1.77;96.98
68804;SHT31;55787;52.678;13.314;2022-12-10T03:44:41;-1.78;97.15
68804;SHT31;55787;52.678;13.314;2022-12-10T03:47:12;-1.78;97.11
68804;SHT31;55787;52.678;13.314;2022-12-10T03:49:39;-1.75;97.22
68804;SHT31;55787;52.678;13.314;2022-12-10T03:52:06;-1.77;97.30
68804;SHT31;55787;52.678;13.314;2022-12-10T03:54:33;-1.75;97.20
68804;SHT31;55787;52.678;13.314;2022-12-10T03:56:59;-1.73;97.21
68804;SHT31;55787;52.678;13.314;2022-12-10T03:59:26;-1.75;97.06
68804;SHT31;55787;52.678;13.314;2022-12-10T04:01:53;-1.74;97.08
68804;SHT31;55787;52.678;13.314;2022-12-10T04:04:20;-1.73;96.89
68804;SHT31;55787;52.678;13.314;2022-12-10T04:06:47;-1.74;97.07
68804;SHT31;55787;52.678;13.314;2022-12-10T04:09:14;-1.75;97.20
68804;SHT31;55787;52.678;13.314;2022-12-10T04:11:42;-1.74;97.17
68804;SHT31;55787;52.678;13.314;2022-12-10T04:14:09;-1.71;96.98
68804;SHT31;55787;52.678;13.314;2022-12-10T04:16:56;-1.67;96.86
68804;SHT31;55787;52.678;13.314;2022-12-10T04:19:22;-1.68;96.76
68804;SHT31;55787;52.678;13.314;2022-12-10T04:21:49;-1.73;96.92
68804;SHT31;55787;52.678;13.314;2022-12-10T04:24:35;-1.70;96.97
68804;SHT31;55787;52.678;13.314;2022-12-10T04:29:50;-1.74;96.98
68804;SHT31;55787;52.678;13.314;2022-12-10T04:32:18;-1.77;96.79
68804;SHT31;55787;52.678;13.314;2022-12-10T04:34:44;-1.75;96.89
68804;SHT31;55787;52.678;13.314;2022-12-10T04:37:12;-1.75;96.78
68804;SHT31;55787;52.678;13.314;2022-12-10T04:39:39;-1.80;97.09
68804;SHT31;55787;52.678;13.314;2022-12-10T04:42:06;-1.78;97.11
68804;SHT31;55787;52.678;13.314;2022-12-10T04:44:33;-1.77;96.73
68804;SHT31;55787;52.678;13.314;2022-12-10T04:47:00;-1.77;96.94
68804;SHT31;55787;52.678;13.314;2022-12-10T04:49:27;-1.80;96.98
68804;SHT31;55787;52.678;13.314;2022-12-10T04:51:53;-1.80;96.84
68804;SHT31;55787;52.678;13.314;2022-12-10T04:54:22;-1.83;96.62
68804;SHT31;55787;52.678;13.314;2022-12-10T04:56:49;-1.87;96.56
68804;SHT31;55787;52.678;13.314;2022-12-10T04:59:16;-1.90;96.86
68804;SHT31;55787;52.678;13.314;2022-12-10T05:01:43;-1.94;96.70
68804;SHT31;55787;52.678;13.314;2022-12-10T05:04:13;-1.99;96.82
68804;SHT31;55787;52.678;13.314;2022-12-10T05:06:40;-2.06;96.80
68804;SHT31;55787;52.678;13.314;2022-12-10T05:09:07;-2.09;96.98
68804;SHT31;55787;52.678;13.314;2022-12-10T05:11:34;-2.14;97.10
68804;SHT31;55787;52.678;13.314;2022-12-10T05:14:02;-2.21;97.28
68804;SHT31;55787;52.678;13.314;2022-12-10T05:16:30;-2.23;97.25
68804;SHT31;55787;52.678;13.314;2022-12-10T05:18:57;-2.22;97.90
68804;SHT31;55787;52.678;13.314;2022-12-10T05:21:26;-2.22;97.49
68804;SHT31;55787;52.678;13.314;2022-12-10T05:24:12;-2.26;97.43
68804;SHT31;55787;52.678;13.314;2022-12-10T05:26:39;-2.32;97.17
68804;SHT31;55787;52.678;13.314;2022-12-10T05:29:06;-2.32;97.59
68804;SHT31;55787;52.678;13.314;2022-12-10T05:31:32;-2.36;97.56
68804;SHT31;55787;52.678;13.314;2022-12-10T05:33:59;-2.42;97.58
68804;SHT31;55787;52.678;13.314;2022-12-10T05:36:29;-2.46;97.60
68804;SHT31;55787;52.678;13.314;2022-12-10T05:38:57;-2.50;97.61
68804;SHT31;55787;52.678;13.314;2022-12-10T05:41:35;-2.54;97.81
68804;SHT31;55787;52.678;13.314;2022-12-10T05:44:01;-2.54;97.89
68804;SHT31;55787;52.678;13.314;2022-12-10T05:46:31;-2.54;97.96
68804;SHT31;55787;52.678;13.314;2022-12-10T05:49:00;-2.56;98.06
68804;SHT31;55787;52.678;13.314;2022-12-10T05:51:29;-2.57;98.05
68804;SHT31;55787;52.678;13.314;2022-12-10T05:53:57;-2.62;98.19
68804;SHT31;55787;52.678;13.314;2022-12-10T05:56:25;-2.60;98.02
68804;SHT31;55787;52.678;13.314;2022-12-10T05:58:54;-2.60;98.13
68804;SHT31;55787;52.678;13.314;2022-12-10T06:01:24;-2.57;98.11
68804;SHT31;55787;52.678;13.314;2022-12-10T06:03:51;-2.59;97.92
68804;SHT31;55787;52.678;13.314;2022-12-10T06:06:29;-2.54;97.91
68804;SHT31;55787;52.678;13.314;2022-12-10T06:08:57;-2.56;97.77
68804;SHT31;55787;52.678;13.314;2022-12-10T06:11:25;-2.53;97.74
68804;SHT31;55787;52.678;13.314;2022-12-10T06:13:53;-2.56;97.81
68804;SHT31;55787;52.678;13.314;2022-12-10T06:16:23;-2.57;97.69
68804;SHT31;55787;52.678;13.314;2022-12-10T06:18:50;-2.56;97.65
68804;SHT31;55787;52.678;13.314;2022-12-10T06:21:17;-2.56;97.53
68804;SHT31;55787;52.678;13.314;2022-12-10T06:23:44;-2.57;97.55
68804;SHT31;55787;52.678;13.314;2022-12-10T06:26:14;-2.54;97.68
68804;SHT31;55787;52.678;13.314;2022-12-10T06:28:41;-2.56;97.56
68804;SHT31;55787;52.678;13.314;2022-12-10T06:31:10;-2.56;97.58
68804;SHT31;55787;52.678;13.314;2022-12-10T06:33:36;-2.57;97.60
68804;SHT31;55787;52.678;13.314;2022-12-10T06:36:05;-2.56;97.45
68804;SHT31;55787;52.678;13.314;2022-12-10T06:38:33;-2.52;97.14
68804;SHT31;55787;52.678;13.314;2022-12-10T06:41:00;-2.54;97.01
68804;SHT31;55787;52.678;13.314;2022-12-10T06:43:30;-2.59;97.03
68804;SHT31;55787;52.678;13.314;2022-12-10T06:45:56;-2.56;97.08
68804;SHT31;55787;52.678;13.314;2022-12-10T06:48:23;-2.53;96.93
68804;SHT31;55787;52.678;13.314;2022-12-10T06:50:50;-2.57;96.62
68804;SHT31;55787;52.678;13.314;2022-12-10T06:53:18;-2.57;97.00
68804;SHT31;55787;52.678;13.314;2022-12-10T06:55:44;-2.60;96.96
68804;SHT31;55787;52.678;13.314;2022-12-10T06:58:11;-2.57;97.06
68804;SHT31;55787;52.678;13.314;2022-12-10T07:00:38;-2.56;97.10
68804;SHT31;55787;52.678;13.314;2022-12-10T07:03:04;-2.50;96.79
68804;SHT31;55787;52.678;13.314;2022-12-10T07:05:31;-2.52;96.63
68804;SHT31;55787;52.678;13.314;2022-12-10T07:07:57;-2.56;96.56
68804;SHT31;55787;52.678;13.314;2022-12-10T07:10:24;-2.53;96.65
68804;SHT31;55787;52.678;13.314;2022-12-10T07:12:50;-2.52;96.53
68804;SHT31;55787;52.678;13.314;2022-12-10T07:15:17;-2.49;96.65
68804;SHT31;55787;52.678;13.314;2022-12-10T07:17:44;-2.45;96.46
68804;SHT31;55787;52.678;13.314;2022-12-10T07:20:11;-2.43;96.40
68804;SHT31;55787;52.678;13.314;2022-12-10T07:22:38;-2.42;96.37
68804;SHT31;55787;52.678;13.314;2022-12-10T07:25:05;-2.33;95.96
68804;SHT31;55787;52.678;13.314;2022-12-10T07:27:32;-2.35;95.75
68804;SHT31;55787;52.678;13.314;2022-12-10T07:29:59;-2.36;95.89
68804;SHT31;55787;52.678;13.314;2022-12-10T07:32:27;-2.35;95.90
68804;SHT31;55787;52.678;13.314;2022-12-10T07:34:53;-2.31;95.63
68804;SHT31;55787;52.678;13.314;2022-12-10T07:37:20;-2.26;95.08
68804;SHT31;55787;52.678;13.314;2022-12-10T07:39:47;-2.26;95.15
68804;SHT31;55787;52.678;13.314;2022-12-10T07:42:14;-2.21;94.99
68804;SHT31;55787;52.678;13.314;2022-12-10T07:44:40;-2.14;94.77
68804;SHT31;55787;52.678;13.314;2022-12-10T07:47:14;-2.15;94.29
68804;SHT31;55787;52.678;13.314;2022-12-10T07:49:41;-2.23;94.61
68804;SHT31;55787;52.678;13.314;2022-12-10T07:52:08;-2.25;94.84
68804;SHT31;55787;52.678;13.314;2022-12-10T07:54:34;-2.22;94.87
68804;SHT31;55787;52.678;13.314;2022-12-10T07:57:01;-2.16;94.75
68804;SHT31;55787;52.678;13.314;2022-12-10T07:59:28;-2.11;94.69
68804;SHT31;55787;52.678;13.314;2022-12-10T08:01:55;-2.08;94.72
68804;SHT31;55787;52.678;13.314;2022-12-10T08:04:21;-2.08;94.08
68804;SHT31;55787;52.678;13.314;2022-12-10T08:06:48;-2.11;94.69
68804;SHT31;55787;52.678;13.314;2022-12-10T08:09:15;-2.09;94.51
68804;SHT31;55787;52.678;13.314;2022-12-10T08:11:41;-2.05;94.71
68804;SHT31;55787;52.678;13.314;2022-12-10T08:14:08;-1.92;94.09
68804;SHT31;55787;52.678;13.314;2022-12-10T08:16:34;-1.92;93.80
68804;SHT31;55787;52.678;13.314;2022-12-10T08:19:01;-1.94;94.03
68804;SHT31;55787;52.678;13.314;2022-12-10T08:21:30;-1.91;93.64
68804;SHT31;55787;52.678;13.314;2022-12-10T08:23:57;-1.85;93.79
68804;SHT31;55787;52.678;13.314;2022-12-10T08:26:27;-1.88;93.85
68804;SHT31;55787;52.678;13.314;2022-12-10T08:28:55;-1.84;93.94
68804;SHT31;55787;52.678;13.314;2022-12-10T08:31:23;-1.83;94.03
68804;SHT31;55787;52.678;13.314;2022-12-10T08:33:50;-1.73;93.58
68804;SHT31;55787;52.678;13.314;2022-12-10T08:36:18;-1.73;93.13
68804;SHT31;55787;52.678;13.314;2022-12-10T08:38:45;-1.73;93.54
68804;SHT31;55787;52.678;13.314;2022-12-10T08:41:20;-1.60;92.88
68804;SHT31;55787;52.678;13.314;2022-12-10T08:43:48;-1.57;92.72
68804;SHT31;55787;52.678;13.314;2022-12-10T08:46:15;-1.60;93.05
68804;SHT31;55787;52.678;13.314;2022-12-10T08:48:42;-1.49;92.89
68804;SHT31;55787;52.678;13.314;2022-12-10T08:51:14;-1.43;91.92
68804;SHT31;55787;52.678;13.314;2022-12-10T08:53:41;-1.49;92.26
68804;SHT31;55787;52.678;13.314;2022-12-10T08:56:08;-1.40;92.61
68804;SHT31;55787;52.678;13.314;2022-12-10T08:58:36;-1.40;92.28
68804;SHT31;55787;52.678;13.314;2022-12-10T09:01:11;-1.42;92.75
68804;SHT31;55787;52.678;13.314;2022-12-10T09:03:38;-1.42;93.01
68804;SHT31;55787;52.678;13.314;2022-12-10T09:06:07;-1.35;92.44
68804;SHT31;55787;52.678;13.314;2022-12-10T09:08:33;-1.30;92.10
68804;SHT31;55787;52.678;13.314;2022-12-10T09:11:09;-1.26;91.74
68804;SHT31;55787;52.678;13.314;2022-12-10T09:13:36;-1.29;91.90
68804;SHT31;55787;52.678;13.314;2022-12-10T09:16:03;-1.22;92.21
68804;SHT31;55787;52.678;13.314;2022-12-10T09:18:30;-1.12;91.56
68804;SHT31;55787;52.678;13.314;2022-12-10T09:20:56;-1.12;91.61
68804;SHT31;55787;52.678;13.314;2022-12-10T09:23:23;-1.12;91.61
68804;SHT31;55787;52.678;13.314;2022-12-10T09:25:50;-1.09;91.10
68804;SHT31;55787;52.678;13.314;2022-12-10T09:28:17;-1.01;90.67
68804;SHT31;55787;52.678;13.314;2022-12-10T09:30:43;-0.99;90.84
68804;SHT31;55787;52.678;13.314;2022-12-10T09:33:10;-1.05;90.84
68804;SHT31;55787;52.678;13.314;2022-12-10T09:35:39;-1.01;91.20
68804;SHT31;55787;52.678;13.314;2022-12-10T09:38:06;-1.02;91.31
68804;SHT31;55787;52.678;13.314;2022-12-10T09:40:49;-0.98;91.22
68804;SHT31;55787;52.678;13.314;2022-12-10T09:43:23;-0.93;90.95
68804;SHT31;55787;52.678;13.314;2022-12-10T09:46:01;-0.93;91.03
68804;SHT31;55787;52.678;13.314;2022-12-10T09:51:31;-0.88;91.07
68804;SHT31;55787;52.678;13.314;2022-12-10T09:54:02;-0.77;90.66
68804;SHT31;55787;52.678;13.314;2022-12-10T09:56:36;-0.72;90.64
68804;SHT31;55787;52.678;13.314;2022-12-10T09:59:19;-0.54;89.73
68804;SHT31;55787;52.678;13.314;2022-12-10T10:01:51;-0.58;89.35
68804;SHT31;55787;52.678;13.314;2022-12-10T10:04:23;-0.60;90.08
68804;SHT31;55787;52.678;13.314;2022-12-10T10:06:50;-0.65;89.92
68804;SHT31;55787;52.678;13.314;2022-12-10T10:09:17;-0.60;89.97
68804;SHT31;55787;52.678;13.314;2022-12-10T10:11:45;-0.51;89.80
68804;SHT31;55787;52.678;13.314;2022-12-10T10:14:24;-0.50;89.55
68804;SHT31;55787;52.678;13.314;2022-12-10T10:16:55;-0.44;90.00
68804;SHT31;55787;52.678;13.314;2022-12-10T10:19:30;-0.43;89.32
68804;SHT31;55787;52.678;13.314;2022-12-10T10:21:59;-0.34;89.21
68804;SHT31;55787;52.678;13.314;2022-12-10T10:24:41;-0.33;88.81
68804;SHT31;55787;52.678;13.314;2022-12-10T10:27:20;-0.27;88.93
68804;SHT31;55787;52.678;13.314;2022-12-10T10:29:51;-0.29;89.07
68804;SHT31;55787;52.678;13.314;2022-12-10T10:32:27;-0.29;89.01
68804;SHT31;55787;52.678;13.314;2022-12-10T10:34:59;-0.30;88.83
68804;SHT31;55787;52.678;13.314;2022-12-10T10:37:29;-0.30;88.65
68804;SHT31;55787;52.678;13.314;2022-12-10T10:39:57;-0.34;88.93
68804;SHT31;55787;52.678;13.314;2022-12-10T10:42:35;-0.29;89.02
68804;SHT31;55787;52.678;13.314;2022-12-10T10:45:35;-0.29;89.02
68804;SHT31;55787;52.678;13.314;2022-12-10T10:48:15;-0.21;88.80
68804;SHT31;55787;52.678;13.314;2022-12-10T10:50:48;-0.09;87.88
68804;SHT31;55787;52.678;13.314;2022-12-10T10:56:04;-0.26;88.22
68804;SHT31;55787;52.678;13.314;2022-12-10T10:58:32;-0.29;88.17
68804;SHT31;55787;52.678;13.314;2022-12-10T11:01:03;-0.34;88.34
68804;SHT31;55787;52.678;13.314;2022-12-10T11:03:32;-0.37;89.09
68804;SHT31;55787;52.678;13.314;2022-12-10T11:06:00;-0.38;88.66
68804;SHT31;55787;52.678;13.314;2022-12-10T11:08:30;-0.34;88.89
68804;SHT31;55787;52.678;13.314;2022-12-10T11:11:06;-0.30;88.91
68804;SHT31;55787;52.678;13.314;2022-12-10T11:13:37;-0.21;88.04
68804;SHT31;55787;52.678;13.314;2022-12-10T11:16:22;-0.29;88.87
68804;SHT31;55787;52.678;13.314;2022-12-10T11:18:57;-0.30;89.39
68804;SHT31;55787;52.678;13.314;2022-12-10T11:21:31;-0.31;89.28
68804;SHT31;55787;52.678;13.314;2022-12-10T11:23:59;-0.31;89.25
68804;SHT31;55787;52.678;13.314;2022-12-10T11:32:23;-0.26;89.23
68804;SHT31;55787;52.678;13.314;2022-12-10T11:35:03;-0.24;89.31
68804;SHT31;55787;52.678;13.314;2022-12-10T11:37:36;-0.26;89.46
68804;SHT31;55787;52.678;13.314;2022-12-10T11:48:10;-0.13;87.91
68804;SHT31;55787;52.678;13.314;2022-12-10T11:50:46;-0.17;88.51
68804;SHT31;55787;52.678;13.314;2022-12-10T11:56:20;-0.19;88.35
68804;SHT31;55787;52.678;13.314;2022-12-10T11:59:15;-0.36;88.75
68804;SHT31;55787;52.678;13.314;2022-12-10T12:02:11;-0.23;88.84
68804;SHT31;55787;52.678;13.314;2022-12-10T12:05:00;-0.23;88.02
68804;SHT31;55787;52.678;13.314;2022-12-10T12:07:51;-0.30;88.86
68804;SHT31;55787;52.678;13.314;2022-12-10T12:10:47;-0.23;88.53
68804;SHT31;55787;52.678;13.314;2022-12-10T12:13:28;-0.16;87.80
68804;SHT31;55787;52.678;13.314;2022-12-10T12:16:11;-0.26;88.25
68804;SHT31;55787;52.678;13.314;2022-12-10T12:21:12;-0.29;88.84
68804;SHT31;55787;52.678;13.314;2022-12-10T12:28:54;-0.29;88.45
68804;SHT31;55787;52.678;13.314;2022-12-10T12:31:31;-0.34;88.53
68804;SHT31;55787;52.678;13.314;2022-12-10T12:34:06;-0.36;88.36
68804;SHT31;55787;52.678;13.314;2022-12-10T12:36:40;-0.49;89.12
68804;SHT31;55787;52.678;13.314;2022-12-10T12:41:49;-0.47;89.30
68804;SHT31;55787;52.678;13.314;2022-12-10T12:50:02;-0.47;89.09
68804;SHT31;55787;52.678;13.314;2022-12-10T12:52:42;-0.38;89.57
68804;SHT31;55787;52.678;13.314;2022-12-10T12:55:17;-0.41;89.64
68804;SHT31;55787;52.678;13.314;2022-12-10T12:57:50;-0.37;88.27
68804;SHT31;55787;52.678;13.314;2022-12-10T13:00:21;-0.34;88.48
68804;SHT31;55787;52.678;13.314;2022-12-10T13:03:17;-0.38;88.70
68804;SHT31;55787;52.678;13.314;2022-12-10T13:05:45;-0.40;88.82
68804;SHT31;55787;52.678;13.314;2022-12-10T13:15:56;-0.43;87.18
68804;SHT31;55787;52.678;13.314;2022-12-10T13:18:36;-0.56;87.69
68804;SHT31;55787;52.678;13.314;2022-12-10T13:23:52;-0.57;88.21
68804;SHT31;55787;52.678;13.314;2022-12-10T13:26:24;-0.53;88.24
68804;SHT31;55787;52.678;13.314;2022-12-10T13:28:52;-0.49;87.69
68804;SHT31;55787;52.678;13.314;2022-12-10T13:31:35;-0.54;87.27
68804;SHT31;55787;52.678;13.314;2022-12-10T13:41:33;-0.70;88.64
68804;SHT31;55787;52.678;13.314;2022-12-10T13:49:49;-0.75;88.40
68804;SHT31;55787;52.678;13.314;2022-12-10T13:52:38;-0.68;88.42
68804;SHT31;55787;52.678;13.314;2022-12-10T13:58:00;-0.81;88.52
68804;SHT31;55787;52.678;13.314;2022-12-10T14:06:14;-0.85;89.15
68804;SHT31;55787;52.678;13.314;2022-12-10T14:08:53;-0.85;89.31
68804;SHT31;55787;52.678;13.314;2022-12-10T14:11:22;-0.88;89.74
68804;SHT31;55787;52.678;13.314;2022-12-10T14:13:56;-0.88;89.58
68804;SHT31;55787;52.678;13.314;2022-12-10T14:16:28;-0.87;89.90
68804;SHT31;55787;52.678;13.314;2022-12-10T14:18:59;-0.91;89.51
68804;SHT31;55787;52.678;13.314;2022-12-10T14:21:32;-0.89;89.60
68804;SHT31;55787;52.678;13.314;2022-12-10T14:23:59;-0.96;89.83
68804;SHT31;55787;52.678;13.314;2022-12-10T14:26:29;-0.95;90.25
68804;SHT31;55787;52.678;13.314;2022-12-10T14:29:08;-0.96;90.26
68804;SHT31;55787;52.678;13.314;2022-12-10T14:31:39;-0.99;90.34
68804;SHT31;55787;52.678;13.314;2022-12-10T14:34:11;-1.02;90.41
68804;SHT31;55787;52.678;13.314;2022-12-10T14:36:49;-1.02;90.41
68804;SHT31;55787;52.678;13.314;2022-12-10T14:39:21;-1.03;90.30
68804;SHT31;55787;52.678;13.314;2022-12-10T14:41:52;-1.02;90.39
68804;SHT31;55787;52.678;13.314;2022-12-10T14:44:21;-1.02;90.66
68804;SHT31;55787;52.678;13.314;2022-12-10T14:46:49;-1.01;90.80
68804;SHT31;55787;52.678;13.314;2022-12-10T14:49:20;-1.01;90.81
68804;SHT31;55787;52.678;13.314;2022-12-10T14:51:48;-1.05;90.75
68804;SHT31;55787;52.678;13.314;2022-12-10T14:54:29;-1.09;90.92
68804;SHT31;55787;52.678;13.314;2022-12-10T14:56:59;-1.13;90.80
68804;SHT31;55787;52.678;13.314;2022-12-10T15:00:16;-1.17;91.00
68804;SHT31;55787;52.678;13.314;2022-12-10T15:04:47;-1.16;91.07
68804;SHT31;55787;52.678;13.314;2022-12-10T15:07:18;-1.17;91.83
68804;SHT31;55787;52.678;13.314;2022-12-10T15:09:46;-1.17;91.42
68804;SHT31;55787;52.678;13.314;2022-12-10T15:12:27;-1.17;91.54
68804;SHT31;55787;52.678;13.314;2022-12-10T15:15:07;-1.15;91.44
68804;SHT31;55787;52.678;13.314;2022-12-10T15:17:45;-1.16;91.40
68804;SHT31;55787;52.678;13.314;2022-12-10T15:23:19;-1.20;91.43
68804;SHT31;55787;52.678;13.314;2022-12-10T15:26:13;-1.20;91.53
68804;SHT31;55787;52.678;13.314;2022-12-10T15:28:41;-1.20;91.36
68804;SHT31;55787;52.678;13.314;2022-12-10T15:33:47;-1.23;91.74
68804;SHT31;55787;52.678;13.314;2022-12-10T15:36:30;-1.23;92.21
68804;SHT31;55787;52.678;13.314;2022-12-10T15:39:21;-1.25;92.41
68804;SHT31;55787;52.678;13.314;2022-12-10T15:41:52;-1.22;92.25
68804;SHT31;55787;52.678;13.314;2022-12-10T15:46:50;-1.26;92.76
68804;SHT31;55787;52.678;13.314;2022-12-10T15:49:17;-1.26;92.75
68804;SHT31;55787;52.678;13.314;2022-12-10T15:51:44;-1.29;92.81
68804;SHT31;55787;52.678;13.314;2022-12-10T15:54:38;-1.29;92.67
68804;SHT31;55787;52.678;13.314;2022-12-10T15:57:24;-1.28;92.77
68804;SHT31;55787;52.678;13.314;2022-12-10T15:59:55;-1.30;92.75
68804;SHT31;55787;52.678;13.314;2022-12-10T16:02:45;-1.29;92.70
68804;SHT31;55787;52.678;13.314;2022-12-10T16:07:41;-1.33;92.93
68804;SHT31;55787;52.678;13.314;2022-12-10T16:10:10;-1.36;92.93
68804;SHT31;55787;52.678;13.314;2022-12-10T16:12:39;-1.35;93.06
68804;SHT31;55787;52.678;13.314;2022-12-10T16:15:10;-1.33;92.98
68804;SHT31;55787;52.678;13.314;2022-12-10T16:17:38;-1.36;93.36
68804;SHT31;55787;52.678;13.314;2022-12-10T16:20:21;-1.33;93.17
68804;SHT31;55787;52.678;13.314;2022-12-10T16:22:48;-1.32;92.98
68804;SHT31;55787;52.678;13.314;2022-12-10T16:25:15;-1.39;93.14
68804;SHT31;55787;52.678;13.314;2022-12-10T16:27:43;-1.39;93.19
68804;SHT31;55787;52.678;13.314;2022-12-10T16:32:44;-1.39;92.97
68804;SHT31;55787;52.678;13.314;2022-12-10T16:35:10;-1.42;93.15
68804;SHT31;55787;52.678;13.314;2022-12-10T16:37:45;-1.42;93.17
68804;SHT31;55787;52.678;13.314;2022-12-10T16:40:13;-1.40;93.22
68804;SHT31;55787;52.678;13.314;2022-12-10T16:42:41;-1.40;93.30
68804;SHT31;55787;52.678;13.314;2022-12-10T16:47:41;-1.39;93.58
68804;SHT31;55787;52.678;13.314;2022-12-10T16:50:08;-1.40;93.55
68804;SHT31;55787;52.678;13.314;2022-12-10T16:52:36;-1.42;93.54
68804;SHT31;55787;52.678;13.314;2022-12-10T16:55:04;-1.43;93.67
68804;SHT31;55787;52.678;13.314;2022-12-10T16:57:30;-1.43;93.66
68804;SHT31;55787;52.678;13.314;2022-12-10T17:00:01;-1.42;93.68
68804;SHT31;55787;52.678;13.314;2022-12-10T17:02:27;-1.43;93.88
68804;SHT31;55787;52.678;13.314;2022-12-10T17:04:54;-1.43;94.02
68804;SHT31;55787;52.678;13.314;2022-12-10T17:07:21;-1.43;94.11
68804;SHT31;55787;52.678;13.314;2022-12-10T17:09:47;-1.46;94.17
68804;SHT31;55787;52.678;13.314;2022-12-10T17:12:15;-1.46;93.99
68804;SHT31;55787;52.678;13.314;2022-12-10T17:14:43;-1.46;94.32
68804;SHT31;55787;52.678;13.314;2022-12-10T17:17:15;-1.44;94.41
68804;SHT31;55787;52.678;13.314;2022-12-10T17:19:42;-1.46;94.11
68804;SHT31;55787;52.678;13.314;2022-12-10T17:22:10;-1.44;94.09
68804;SHT31;55787;52.678;13.314;2022-12-10T17:24:37;-1.44;94.07